createdAt,value
2019-06-01T00:01:18.492Z,88.08
2019-06-01T00:03:48.737Z,87.88
2019-06-01T00:06:18.795Z,87.92
2019-06-01T00:08:49.288Z,87.98
2019-06-01T00:11:19.553Z,88.30
2019-06-01T00:13:49.741Z,88.61
2019-06-01T00:16:19.835Z,88.33
2019-06-01T00:18:50.356Z,88.17
2019-06-01T00:21:20.566Z,89.58
2019-06-01T00:23:50.648Z,90.31
2019-06-01T00:26:20.720Z,90.73
2019-06-01T00:28:52.893Z,90.63
2019-06-01T00:31:22.589Z,91.19
2019-06-01T00:33:52.668Z,91.42
2019-06-01T00:36:22.745Z,91.15
2019-06-01T00:38:52.858Z,90.85
2019-06-01T00:41:22.940Z,90.67
2019-06-01T00:43:53.024Z,90.53
2019-06-01T00:46:23.088Z,91.00
2019-06-01T00:48:54.235Z,91.34
2019-06-01T00:51:24.424Z,91.55
2019-06-01T00:53:54.510Z,90.85
2019-06-01T00:56:24.577Z,90.26
2019-06-01T00:58:54.681Z,90.42
2019-06-01T01:01:24.783Z,90.14
2019-06-01T01:03:54.891Z,89.85
2019-06-01T01:06:24.972Z,89.33
2019-06-01T01:08:55.445Z,89.55
2019-06-01T01:11:25.585Z,89.70
2019-06-01T01:13:55.673Z,89.80
2019-06-01T01:16:25.752Z,90.20
2019-06-01T01:18:56.030Z,90.23
2019-06-01T01:21:26.098Z,90.20
2019-06-01T01:23:56.649Z,89.81
2019-06-01T01:26:26.914Z,90.01
2019-06-01T01:28:57.037Z,89.78
2019-06-01T01:31:27.089Z,89.61
2019-06-01T01:33:57.624Z,89.84
2019-06-01T01:36:27.825Z,89.68
2019-06-01T01:38:58.401Z,89.53
2019-06-01T01:41:28.627Z,89.53
2019-06-01T01:43:58.897Z,89.88
2019-06-01T01:46:28.961Z,90.05
2019-06-01T01:48:59.034Z,90.01
2019-06-01T01:51:29.162Z,89.77
2019-06-01T01:53:59.264Z,89.68
2019-06-01T01:56:29.335Z,89.27
2019-06-01T01:58:59.402Z,89.39
2019-06-01T02:01:29.465Z,89.59
2019-06-01T02:03:59.575Z,89.42
2019-06-01T02:06:29.697Z,89.06
2019-06-01T02:08:59.793Z,89.19
2019-06-01T02:11:29.865Z,89.47
2019-06-01T02:14:00.084Z,89.50
2019-06-01T02:16:30.231Z,89.62
2019-06-01T02:19:00.601Z,89.37
2019-06-01T02:21:30.769Z,89.07
2019-06-01T02:24:01.281Z,88.77
2019-06-01T02:26:31.514Z,88.85
2019-06-01T02:29:02.546Z,89.08
2019-06-01T02:31:41.376Z,89.16
2019-06-01T02:34:06.118Z,89.11
2019-06-01T02:36:36.527Z,89.15
2019-06-01T02:39:08.746Z,89.22
2019-06-01T02:41:38.835Z,89.09
2019-06-01T02:44:08.912Z,89.33
2019-06-01T02:46:38.993Z,89.22
2019-06-01T02:49:09.173Z,89.22
2019-06-01T02:51:39.270Z,89.08
2019-06-01T02:54:09.350Z,89.14
2019-06-01T02:56:39.434Z,89.15
2019-06-01T02:59:09.495Z,89.14
2019-06-01T03:01:55.902Z,89.23
2019-06-01T03:04:11.631Z,89.37
2019-06-01T03:06:43.766Z,89.54
2019-06-01T03:09:14.630Z,89.70
2019-06-01T03:11:46.232Z,89.52
2019-06-01T03:14:18.918Z,89.48
2019-06-01T03:16:52.231Z,89.30
2019-06-01T03:19:24.406Z,88.96
2019-06-01T03:21:57.992Z,88.95
2019-06-01T03:24:28.140Z,88.63
2019-06-01T03:27:00.233Z,88.43
2019-06-01T03:29:33.218Z,88.27
2019-06-01T03:32:24.098Z,87.96
2019-06-01T03:34:35.179Z,87.97
2019-06-01T03:37:06.965Z,87.45
2019-06-01T03:39:37.275Z,87.49
2019-06-01T03:42:07.961Z,87.40
2019-06-01T03:44:38.254Z,86.85
2019-06-01T03:47:09.635Z,86.70
2019-06-01T03:49:39.893Z,86.59
2019-06-01T03:52:09.969Z,86.28
2019-06-01T03:54:40.042Z,85.81
2019-06-01T03:57:11.239Z,85.66
2019-06-01T03:59:41.392Z,86.18
2019-06-01T04:02:11.490Z,85.59
2019-06-01T04:04:41.547Z,85.62
2019-06-01T04:07:12.455Z,85.73
2019-06-01T04:09:42.576Z,85.28
2019-06-01T04:12:12.669Z,85.06
2019-06-01T04:14:42.735Z,84.93
2019-06-01T04:17:12.822Z,84.77
2019-06-01T04:19:42.894Z,84.90
2019-06-01T04:22:14.477Z,84.69
2019-06-01T04:24:44.520Z,84.36
2019-06-01T04:27:14.626Z,83.86
2019-06-01T04:29:44.688Z,84.07
2019-06-01T04:32:14.797Z,83.75
2019-06-01T04:34:44.874Z,83.78
2019-06-01T04:37:14.948Z,83.10
2019-06-01T04:39:45.004Z,83.10
2019-06-01T04:42:15.492Z,82.15
2019-06-01T04:44:45.578Z,82.26
2019-06-01T04:47:15.655Z,82.26
2019-06-01T04:49:45.689Z,81.55
2019-06-01T04:52:15.786Z,81.07
2019-06-01T04:54:45.870Z,81.13
2019-06-01T04:57:15.969Z,80.96
2019-06-01T04:59:46.255Z,81.26
2019-06-01T05:02:16.341Z,80.85
2019-06-01T05:04:46.476Z,80.56
2019-06-01T05:07:16.607Z,80.76
2019-06-01T05:09:46.671Z,80.17
2019-06-01T05:12:16.744Z,79.85
2019-06-01T05:14:46.838Z,79.82
2019-06-01T05:17:16.971Z,79.65
2019-06-01T05:19:46.978Z,79.49
2019-06-01T05:22:17.062Z,79.50
2019-06-01T05:24:47.134Z,78.69
2019-06-01T05:27:17.466Z,78.98
2019-06-01T05:29:47.616Z,78.72
2019-06-01T05:32:18.749Z,79.09
2019-06-01T05:34:48.938Z,78.58
2019-06-01T05:37:19.024Z,77.78
2019-06-01T05:39:49.128Z,77.54
2019-06-01T05:42:19.210Z,77.29
2019-06-01T05:44:49.318Z,76.29
2019-06-01T05:47:19.408Z,75.78
2019-06-01T05:49:49.493Z,75.68
2019-06-01T05:52:19.558Z,75.49
2019-06-01T05:54:49.611Z,73.47
2019-06-01T05:57:19.690Z,73.31
2019-06-01T05:59:49.779Z,73.08
2019-06-01T06:02:19.836Z,73.24
2019-06-01T06:04:49.902Z,72.39
2019-06-01T06:07:20.009Z,72.34
2019-06-01T06:09:50.099Z,71.97
2019-06-01T06:12:21.520Z,72.31
2019-06-01T06:14:51.801Z,72.53
2019-06-01T06:17:24.329Z,71.74
2019-06-01T06:19:53.719Z,72.26
2019-06-01T06:22:23.789Z,72.28
2019-06-01T06:24:53.897Z,71.84
2019-06-01T06:27:23.965Z,71.09
2019-06-01T06:29:56.535Z,70.90
2019-06-01T06:32:28.461Z,68.85
2019-06-01T06:34:58.570Z,68.42
2019-06-01T06:37:28.652Z,66.95
2019-06-01T06:39:59.671Z,64.60
2019-06-01T06:42:29.860Z,62.17
2019-06-01T06:45:03.780Z,58.45
2019-06-01T06:47:34.048Z,56.94
2019-06-01T06:50:04.210Z,55.05
2019-06-01T06:52:34.278Z,54.53
2019-06-01T06:55:04.612Z,53.80
2019-06-01T06:57:34.703Z,54.06
2019-06-01T07:00:05.722Z,55.78
2019-06-01T07:02:35.806Z,55.43
2019-06-01T07:05:06.375Z,53.39
2019-06-01T07:07:36.489Z,55.55
2019-06-01T07:10:07.146Z,54.90
2019-06-01T07:12:37.276Z,54.65
2019-06-01T07:15:07.972Z,53.76
2019-06-01T07:17:43.598Z,55.02
2019-06-01T07:20:14.054Z,55.78
2019-06-01T07:22:44.125Z,56.96
2019-06-01T07:25:14.225Z,58.76
2019-06-01T07:27:44.303Z,58.75
2019-06-01T07:30:14.512Z,59.46
2019-06-01T07:32:47.371Z,56.32
2019-06-01T07:35:17.523Z,53.09
2019-06-01T07:37:47.637Z,53.99
2019-06-01T07:40:17.811Z,50.81
2019-06-01T07:42:47.899Z,52.03
2019-06-01T07:45:18.451Z,51.43
2019-06-01T07:47:48.658Z,51.83
2019-06-01T07:50:19.788Z,52.42
2019-06-01T07:52:49.997Z,53.94
2019-06-01T07:55:21.416Z,56.00
2019-06-01T07:57:51.761Z,56.92
2019-06-01T08:00:22.971Z,55.66
2019-06-01T08:02:53.699Z,53.76
2019-06-01T08:05:25.070Z,55.20
2019-06-01T08:07:55.836Z,51.97
2019-06-01T08:10:27.772Z,50.63
2019-06-01T08:12:58.000Z,49.93
2019-06-01T08:15:28.356Z,53.80
2019-06-01T08:17:58.948Z,52.70
2019-06-01T08:20:30.234Z,51.28
2019-06-01T08:23:00.412Z,51.27
2019-06-01T08:25:30.770Z,50.24
2019-06-01T08:28:00.962Z,47.57
2019-06-01T08:30:31.043Z,49.37
2019-06-01T08:33:01.181Z,51.23
2019-06-01T08:35:31.277Z,49.77
2019-06-01T08:38:01.368Z,50.42
2019-06-01T08:40:31.530Z,50.42
2019-06-01T08:43:01.651Z,50.74
2019-06-01T08:45:35.892Z,52.84
2019-06-01T08:48:03.636Z,52.52
2019-06-01T08:50:34.092Z,54.07
2019-06-01T08:53:04.289Z,54.79
2019-06-01T08:55:34.549Z,54.99
2019-06-01T08:58:04.634Z,52.82
2019-06-01T09:00:34.827Z,53.68
2019-06-01T09:03:04.936Z,53.44
2019-06-01T09:05:35.236Z,54.05
2019-06-01T09:08:05.455Z,53.99
2019-06-01T09:10:35.660Z,53.85
2019-06-01T09:13:05.700Z,52.43
2019-06-01T09:15:35.774Z,52.60
2019-06-01T09:18:05.899Z,50.79
2019-06-01T09:20:38.802Z,48.10
2019-06-01T09:23:07.913Z,47.60
2019-06-01T09:25:39.385Z,46.41
2019-06-01T09:28:09.595Z,48.73
2019-06-01T09:30:39.679Z,50.21
2019-06-01T09:33:09.786Z,49.55
2019-06-01T09:35:53.989Z,47.41
2019-06-01T09:38:11.675Z,46.03
2019-06-01T09:40:41.775Z,47.62
2019-06-01T09:43:11.881Z,46.94
2019-06-01T09:45:42.077Z,47.07
2019-06-01T09:48:12.206Z,47.02
2019-06-01T09:50:42.524Z,45.94
2019-06-01T09:53:12.625Z,45.38
2019-06-01T09:55:42.865Z,43.91
2019-06-01T09:58:12.955Z,42.88
2019-06-01T10:00:43.997Z,42.95
2019-06-01T10:03:14.244Z,43.78
2019-06-01T10:05:58.438Z,43.34
2019-06-01T10:08:16.176Z,42.34
2019-06-01T10:10:46.261Z,42.41
2019-06-01T10:13:16.350Z,42.42
2019-06-01T10:15:46.468Z,41.49
2019-06-01T10:18:16.561Z,42.22
2019-06-01T10:20:46.639Z,40.91
2019-06-01T10:23:17.054Z,41.65
2019-06-01T10:25:47.142Z,42.48
2019-06-01T10:28:17.261Z,41.00
2019-06-01T10:30:47.524Z,40.16
2019-06-01T10:33:17.594Z,40.55
2019-06-01T10:35:47.696Z,40.58
2019-06-01T10:38:17.793Z,41.57
2019-06-01T10:40:47.924Z,39.33
2019-06-01T10:43:18.071Z,39.66
2019-06-01T10:45:48.211Z,39.35
2019-06-01T10:48:18.530Z,40.22
2019-06-01T10:50:48.619Z,38.97
2019-06-01T10:53:18.781Z,40.58
2019-06-01T10:55:48.891Z,39.39
2019-06-01T10:58:19.111Z,39.82
2019-06-01T11:00:51.070Z,39.57
2019-06-01T11:03:21.007Z,39.52
2019-06-01T11:05:51.156Z,37.94
2019-06-01T11:08:21.289Z,40.17
2019-06-01T11:10:51.446Z,42.02
2019-06-01T11:13:21.562Z,40.06
2019-06-01T11:15:51.675Z,37.74
2019-06-01T11:18:21.763Z,37.63
2019-06-01T11:20:51.847Z,39.08
2019-06-01T11:23:21.940Z,39.88
2019-06-01T11:25:52.004Z,38.45
2019-06-01T11:28:22.506Z,37.39
2019-06-01T11:30:52.616Z,38.45
2019-06-01T11:33:22.697Z,38.65
2019-06-01T11:35:52.806Z,38.29
2019-06-01T11:38:22.900Z,38.66
2019-06-01T11:40:52.996Z,39.46
2019-06-01T11:43:23.208Z,40.24
2019-06-01T11:45:53.324Z,40.32
2019-06-01T11:48:23.400Z,39.81
2019-06-01T11:50:53.600Z,39.49
2019-06-01T11:53:23.715Z,38.93
2019-06-01T11:55:53.801Z,39.34
2019-06-01T11:58:23.897Z,38.27
2019-06-01T12:00:54.005Z,39.26
2019-06-01T12:03:24.109Z,40.11
2019-06-01T12:05:54.185Z,39.82
2019-06-01T12:08:24.267Z,39.03
2019-06-01T12:10:54.387Z,39.19
2019-06-01T12:13:24.484Z,40.98
2019-06-01T12:15:54.600Z,41.06
2019-06-01T12:18:24.684Z,39.50
2019-06-01T12:20:54.779Z,37.90
2019-06-01T12:23:24.852Z,37.23
2019-06-01T12:25:54.950Z,37.71
2019-06-01T12:28:25.031Z,37.90
2019-06-01T12:30:55.191Z,37.75
2019-06-01T12:33:25.291Z,37.59
2019-06-01T12:35:55.394Z,38.47
2019-06-01T12:38:25.455Z,38.92
2019-06-01T12:40:55.589Z,36.95
2019-06-01T12:43:25.657Z,37.87
2019-06-01T12:46:06.544Z,36.60
2019-06-01T12:48:27.597Z,38.18
2019-06-01T12:50:57.680Z,38.98
2019-06-01T12:53:27.780Z,40.14
2019-06-01T12:55:57.900Z,42.09
2019-06-01T12:58:27.979Z,40.49
2019-06-01T13:01:02.629Z,39.02
2019-06-01T13:03:29.892Z,38.76
2019-06-01T13:05:59.993Z,38.35
2019-06-01T13:08:30.060Z,38.49
2019-06-01T13:11:00.152Z,37.78
2019-06-01T13:13:30.623Z,37.60
2019-06-01T13:16:00.730Z,38.81
2019-06-01T13:18:30.804Z,39.26
2019-06-01T13:21:00.897Z,38.67
2019-06-01T13:23:30.981Z,37.02
2019-06-01T13:26:01.091Z,38.27
2019-06-01T13:28:38.129Z,40.10
2019-06-01T13:31:02.999Z,38.80
2019-06-01T13:33:33.116Z,40.06
2019-06-01T13:36:03.207Z,38.57
2019-06-01T13:38:33.278Z,39.63
2019-06-01T13:41:03.381Z,38.60
2019-06-01T13:43:33.475Z,38.94
2019-06-01T13:46:06.459Z,39.03
2019-06-01T13:48:35.448Z,39.16
2019-06-01T13:51:05.508Z,41.07
2019-06-01T13:53:35.611Z,41.02
2019-06-01T13:56:06.522Z,40.07
2019-06-01T13:58:36.625Z,39.30
2019-06-01T14:01:06.724Z,39.19
2019-06-01T14:03:36.816Z,40.57
2019-06-01T14:06:09.945Z,40.72
2019-06-01T14:08:40.056Z,39.69
2019-06-01T14:11:10.123Z,38.35
2019-06-01T14:13:40.215Z,38.18
2019-06-01T14:16:10.290Z,38.28
2019-06-01T14:18:40.402Z,38.66
2019-06-01T14:21:10.475Z,40.18
2019-06-01T14:23:40.590Z,40.18
2019-06-01T14:26:10.683Z,42.29
2019-06-01T14:28:40.828Z,41.46
2019-06-01T14:31:10.917Z,40.73
2019-06-01T14:33:41.007Z,40.26
2019-06-01T14:36:11.177Z,40.31
2019-06-01T14:38:47.213Z,40.55
2019-06-01T14:41:13.059Z,41.69
2019-06-01T14:43:43.154Z,42.47
2019-06-01T14:46:13.362Z,42.38
2019-06-01T14:48:43.491Z,41.31
2019-06-01T14:51:13.620Z,42.75
2019-06-01T14:53:43.756Z,42.39
2019-06-01T14:56:13.861Z,41.40
2019-06-01T14:58:43.959Z,42.25
2019-06-01T15:01:31.286Z,42.64
2019-06-01T15:03:48.163Z,44.18
2019-06-01T15:06:20.698Z,44.31
2019-06-01T15:09:08.784Z,44.78
2019-06-01T15:11:22.172Z,45.62
2019-06-01T15:13:52.412Z,46.77
2019-06-01T15:16:22.481Z,48.57
2019-06-01T15:18:56.087Z,47.23
2019-06-01T15:21:26.456Z,46.82
2019-06-01T15:23:59.679Z,46.23
2019-06-01T15:26:29.744Z,45.27
2019-06-01T15:28:59.837Z,44.82
2019-06-01T15:31:29.947Z,44.68
2019-06-01T15:34:00.076Z,44.10
2019-06-01T15:36:30.153Z,43.68
2019-06-01T15:39:00.270Z,43.67
2019-06-01T15:41:30.342Z,44.38
2019-06-01T15:44:01.263Z,44.59
2019-06-01T15:46:31.369Z,45.37
2019-06-01T15:49:01.908Z,45.18
2019-06-01T15:51:32.242Z,45.75
2019-06-01T15:54:12.709Z,46.24
2019-06-01T15:56:43.977Z,46.77
2019-06-01T15:59:14.079Z,46.94
2019-06-01T16:01:44.199Z,47.42
2019-06-01T16:04:14.290Z,47.46
2019-06-01T16:06:49.763Z,48.32
2019-06-01T16:12:43.671Z,49.40
2019-06-01T16:19:31.363Z,49.25
2019-06-01T16:22:46.185Z,50.12
2019-06-01T16:25:21.846Z,49.82
2019-06-01T16:27:56.743Z,50.38
2019-06-01T16:30:26.950Z,51.15
2019-06-01T16:33:06.220Z,50.15
2019-06-01T16:35:41.967Z,51.09
2019-06-01T16:38:17.101Z,51.51
2019-06-01T16:40:50.006Z,51.16
2019-06-01T16:43:22.549Z,51.34
2019-06-01T16:45:55.610Z,51.42
2019-06-01T16:48:25.767Z,52.21
2019-06-01T16:50:55.869Z,53.21
2019-06-01T16:53:43.517Z,54.26
2019-06-01T16:56:40.487Z,53.69
2019-06-01T16:59:10.631Z,53.15
2019-06-01T17:01:40.749Z,52.30
2019-06-01T17:04:10.956Z,52.06
2019-06-01T17:06:42.273Z,52.37
2019-06-01T17:09:12.381Z,52.36
2019-06-01T17:11:42.814Z,52.70
2019-06-01T17:14:13.425Z,52.84
2019-06-01T17:16:44.147Z,53.23
2019-06-01T17:19:14.590Z,53.31
2019-06-01T17:21:44.956Z,53.88
2019-06-01T17:24:15.056Z,54.02
2019-06-01T17:26:45.363Z,54.32
2019-06-01T17:29:15.513Z,53.73
2019-06-01T17:31:54.339Z,53.90
2019-06-01T17:34:17.766Z,54.47
2019-06-01T17:36:48.335Z,53.95
2019-06-01T17:39:39.271Z,54.24
2019-06-01T17:42:09.861Z,54.50
2019-06-01T17:44:40.179Z,55.72
2019-06-01T17:47:10.562Z,55.78
2019-06-01T17:49:40.748Z,56.17
2019-06-01T17:52:11.863Z,56.79
2019-06-01T17:54:41.961Z,56.76
2019-06-01T17:57:12.134Z,56.25
2019-06-01T17:59:48.436Z,56.02
2019-06-01T18:02:18.536Z,56.80
2019-06-01T18:04:48.868Z,56.52
2019-06-01T18:07:19.008Z,57.17
2019-06-01T18:09:50.245Z,56.57
2019-06-01T18:12:21.372Z,57.19
2019-06-01T18:14:51.534Z,56.84
2019-06-01T18:17:21.643Z,57.42
2019-06-01T18:19:51.898Z,57.78
2019-06-01T18:22:22.645Z,57.45
2019-06-01T18:24:53.606Z,58.01
2019-06-01T18:27:23.937Z,57.46
2019-06-01T18:29:54.153Z,57.25
2019-06-01T18:32:24.412Z,57.74
2019-06-01T18:34:54.811Z,57.34
2019-06-01T18:37:25.044Z,58.27
2019-06-01T18:39:55.754Z,58.02
2019-06-01T18:42:29.637Z,58.15
2019-06-01T18:45:00.126Z,58.18
2019-06-01T18:47:32.487Z,58.31
2019-06-01T18:50:03.814Z,58.37
2019-06-01T18:52:34.237Z,58.71
2019-06-01T18:55:06.300Z,59.13
2019-06-01T18:57:38.812Z,59.26
2019-06-01T19:00:13.552Z,59.51
2019-06-01T19:02:43.320Z,59.24
2019-06-01T19:05:15.450Z,59.96
2019-06-01T19:07:46.452Z,59.82
2019-06-01T19:10:17.255Z,59.73
2019-06-01T19:12:47.498Z,60.53
2019-06-01T19:15:27.226Z,60.09
2019-06-01T19:17:50.595Z,60.43
2019-06-01T19:20:21.220Z,61.27
2019-06-01T19:22:52.054Z,61.34
2019-06-01T19:25:22.426Z,61.89
2019-06-01T19:27:52.742Z,62.21
2019-06-01T19:30:35.807Z,63.40
2019-06-01T19:33:10.584Z,63.24
2019-06-01T19:35:40.263Z,64.13
2019-06-01T19:38:11.403Z,64.47
2019-06-01T19:40:43.071Z,65.13
2019-06-01T19:43:13.618Z,65.56
2019-06-01T19:45:43.864Z,64.87
2019-06-01T19:48:14.637Z,65.53
2019-06-01T19:50:46.498Z,65.83
2019-06-01T19:53:17.019Z,66.20
2019-06-01T19:55:47.503Z,67.02
2019-06-01T19:58:19.136Z,66.85
2019-06-01T20:00:50.581Z,67.21
2019-06-01T20:03:23.483Z,67.00
2019-06-01T20:05:53.319Z,67.89
2019-06-01T20:08:23.576Z,69.00
2019-06-01T20:10:56.575Z,68.49
2019-06-01T20:13:27.240Z,69.39
2019-06-01T20:15:57.398Z,70.18
2019-06-01T20:18:27.766Z,70.33
2019-06-01T20:20:58.034Z,69.78
2019-06-01T20:23:28.340Z,70.51
2019-06-01T20:25:58.628Z,70.79
2019-06-01T20:28:29.010Z,70.93
2019-06-01T20:30:59.158Z,71.30
2019-06-01T20:33:29.497Z,70.92
2019-06-01T20:35:59.794Z,71.65
2019-06-01T20:38:30.141Z,72.69
2019-06-01T20:41:00.429Z,73.59
2019-06-01T20:43:30.788Z,74.77
2019-06-01T20:46:01.013Z,74.65
2019-06-01T20:48:31.271Z,74.70
2019-06-01T20:51:01.595Z,74.55
2019-06-01T20:53:31.878Z,74.44
2019-06-01T20:56:02.126Z,74.71
2019-06-01T20:58:32.296Z,74.31
2019-06-01T21:01:02.427Z,74.25
2019-06-01T21:03:32.550Z,74.40
2019-06-01T21:06:02.984Z,74.75
2019-06-01T21:08:33.112Z,75.57
2019-06-01T21:11:03.230Z,75.49
2019-06-01T21:13:33.333Z,75.59
2019-06-01T21:16:03.449Z,76.04
2019-06-01T21:18:33.537Z,75.66
2019-06-01T21:21:03.654Z,75.81
2019-06-01T21:23:33.726Z,76.03
2019-06-01T21:26:03.825Z,76.11
2019-06-01T21:28:33.921Z,75.92
2019-06-01T21:31:04.000Z,75.55
2019-06-01T21:33:34.098Z,76.26
2019-06-01T21:36:15.145Z,76.81
2019-06-01T21:38:45.518Z,75.85
2019-06-01T21:41:15.700Z,76.31
2019-06-01T21:43:45.777Z,76.67
2019-06-01T21:46:15.930Z,76.84
2019-06-01T21:48:46.036Z,76.50
2019-06-01T21:51:17.637Z,76.22
2019-06-01T21:53:47.902Z,76.48
2019-06-01T21:56:20.222Z,76.57
2019-06-01T21:58:49.855Z,76.48
2019-06-01T22:01:20.651Z,76.44
2019-06-01T22:03:50.883Z,77.48
2019-06-01T22:06:21.803Z,76.84
2019-06-01T22:08:52.988Z,76.65
2019-06-01T22:11:23.595Z,76.73
2019-06-01T22:13:53.800Z,75.14
2019-06-01T22:16:24.016Z,74.51
2019-06-01T22:18:54.152Z,74.88
2019-06-01T22:21:24.368Z,75.31
2019-06-01T22:23:54.447Z,75.94
2019-06-01T22:26:24.495Z,75.33
2019-06-01T22:28:54.575Z,76.73
2019-06-01T22:31:24.648Z,78.90
2019-06-01T22:33:54.729Z,78.78
2019-06-01T22:36:25.170Z,78.27
2019-06-01T22:38:55.312Z,78.95
2019-06-01T22:41:25.971Z,79.58
2019-06-01T22:43:56.219Z,80.15
2019-06-01T22:46:26.799Z,77.74
2019-06-01T22:48:57.090Z,77.63
2019-06-01T22:51:29.538Z,79.48
2019-06-01T22:53:59.688Z,79.48
2019-06-01T22:56:29.770Z,79.38
2019-06-01T22:58:59.892Z,80.38
2019-06-01T23:01:30.000Z,80.84
2019-06-01T23:04:00.072Z,81.58
2019-06-01T23:06:31.187Z,82.16
2019-06-01T23:09:01.447Z,82.78
2019-06-01T23:11:31.781Z,83.27
2019-06-01T23:14:01.875Z,82.24
2019-06-01T23:16:31.990Z,82.14
2019-06-01T23:19:02.050Z,83.12
2019-06-01T23:21:32.163Z,83.14
2019-06-01T23:24:02.312Z,83.91
2019-06-01T23:26:32.591Z,83.75
2019-06-01T23:29:02.638Z,82.79
2019-06-01T23:31:32.734Z,82.97
2019-06-01T23:34:02.936Z,83.35
2019-06-01T23:36:32.986Z,82.50
2019-06-01T23:39:03.231Z,83.46
2019-06-01T23:41:33.319Z,84.13
2019-06-01T23:44:11.667Z,84.71
2019-06-01T23:46:35.169Z,85.33
2019-06-01T23:49:05.259Z,85.94
2019-06-01T23:51:35.332Z,86.75
2019-06-01T23:54:05.436Z,86.94
2019-06-01T23:56:35.506Z,86.63
2019-06-01T23:59:05.923Z,87.33
